Time;durP1;ratioP1;P1;durP2;ratioP2;P2;SDS_P1;SDS_P2;PMS_P1;PMS_P2;Temp;Humidity;BMP_temperature;BMP_pressure;BME280_temperature;BME280_humidity;BME280_pressure;Samples;Min_cycle;Max_cycle;Signal;HPM_P1;HPM_P2
2022/08/15 00:01:27;;;;;;;;;;;17.10;99.90;;;;;;4227714;28;19968;-62
2022/08/15 00:03:33;;;;;;;;;;;17.10;99.90;;;;;;4228810;28;20406;-65
2022/08/15 00:05:34;;;;;;;;;;;17.20;99.90;;;;;;4227739;28;19937;-62
2022/08/15 00:07:34;;;;;;;;;;;17.20;99.90;;;;;;4228708;28;19930;-62
2022/08/15 00:09:35;;;;;;;;;;;17.20;99.90;;;;;;4227699;28;19923;-62
2022/08/15 00:11:39;;;;;;;;;;;17.30;99.90;;;;;;4228455;28;20366;-62
2022/08/15 00:13:41;;;;;;;;;;;17.30;99.90;;;;;;4227646;28;19915;-62
2022/08/15 00:15:42;;;;;;;;;;;17.30;99.90;;;;;;4228792;28;20313;-62
2022/08/15 00:17:43;;;;;;;;;;;17.40;99.90;;;;;;4227499;28;20348;-60
2022/08/15 00:19:49;;;;;;;;;;;17.40;99.90;;;;;;4228442;28;19911;-62
2022/08/15 00:21:52;;;;;;;;;;;17.50;99.90;;;;;;4228046;28;19920;-62
2022/08/15 00:23:55;;;;;;;;;;;17.50;99.90;;;;;;4228185;28;19949;-63
2022/08/15 00:25:58;;;;;;;;;;;17.60;99.90;;;;;;4228025;28;19900;-62
2022/08/15 00:27:59;;;;;;;;;;;17.60;99.90;;;;;;4227589;28;19904;-62
2022/08/15 00:30:02;;;;;;;;;;;17.60;99.90;;;;;;4209839;28;20422;-62
2022/08/15 00:32:06;;;;;;;;;;;17.70;99.90;;;;;;4227591;28;19985;-61
2022/08/15 00:34:06;;;;;;;;;;;17.60;99.90;;;;;;4228094;28;19976;-62
2022/08/15 00:36:07;;;;;;;;;;;17.70;99.90;;;;;;4226947;28;19918;-61
2022/08/15 00:38:13;;;;;;;;;;;17.70;99.90;;;;;;4228675;28;19907;-62
2022/08/15 00:40:14;;;;;;;;;;;17.80;99.90;;;;;;4227441;28;19960;-61
2022/08/15 00:42:19;;;;;;;;;;;17.80;99.90;;;;;;4228691;28;20351;-62
2022/08/15 00:44:30;;;;;;;;;;;17.80;99.90;;;;;;4227539;28;19953;-62
2022/08/15 00:46:31;;;;;;;;;;;17.80;99.90;;;;;;4228162;28;20309;-62
2022/08/15 00:48:41;;;;;;;;;;;17.80;99.90;;;;;;4225306;28;19903;-63
2022/08/15 00:50:42;;;;;;;;;;;17.80;99.90;;;;;;4228445;28;19904;-61
2022/08/15 00:52:43;;;;;;;;;;;17.80;99.90;;;;;;4227595;28;20354;-60
2022/08/15 00:54:46;;;;;;;;;;;17.80;99.90;;;;;;4228334;28;20464;-61
2022/08/15 00:56:49;;;;;;;;;;;17.80;99.90;;;;;;4229741;28;20270;-61
2022/08/15 00:58:51;;;;;;;;;;;17.90;99.90;;;;;;4231718;27;20317;-61
2022/08/15 01:00:52;;;;;;;;;;;17.90;99.90;;;;;;4230083;28;20424;-61
2022/08/15 01:02:54;;;;;;;;;;;17.90;99.90;;;;;;4231098;28;19904;-61
2022/08/15 01:04:55;;;;;;;;;;;17.80;99.90;;;;;;4230806;28;19964;-61
2022/08/15 01:06:59;;;;;;;;;;;17.80;99.90;;;;;;4230636;28;20321;-61
2022/08/15 01:09:02;;;;;;;;;;;17.80;99.90;;;;;;4229293;28;19930;-61
2022/08/15 01:11:07;;;;;;;;;;;17.80;99.90;;;;;;4230396;28;19904;-61
2022/08/15 01:13:08;;;;;;;;;;;17.70;99.90;;;;;;4231073;28;20363;-61
2022/08/15 01:15:11;;;;;;;;;;;17.70;99.90;;;;;;4230243;28;19904;-61
2022/08/15 01:17:13;;;;;;;;;;;17.60;99.90;;;;;;4231459;28;19921;-62
2022/08/15 01:19:17;;;;;;;;;;;17.50;99.90;;;;;;4230259;28;20357;-61
2022/08/15 01:21:28;;;;;;;;;;;17.50;99.90;;;;;;4231208;28;19952;-61
2022/08/15 01:23:35;;;;;;;;;;;17.40;99.90;;;;;;4229718;28;19904;-61
2022/08/15 01:25:44;;;;;;;;;;;17.40;99.90;;;;;;4231366;28;19912;-61
2022/08/15 01:27:51;;;;;;;;;;;17.30;99.90;;;;;;4229411;28;19912;-61
2022/08/15 01:29:53;;;;;;;;;;;17.30;99.90;;;;;;4231059;28;20364;-61
2022/08/15 01:31:53;;;;;;;;;;;17.30;99.90;;;;;;4229920;28;19913;-61
2022/08/15 01:33:57;;;;;;;;;;;17.20;99.90;;;;;;4230880;28;19965;-62
2022/08/15 01:35:59;;;;;;;;;;;17.30;99.90;;;;;;4229601;28;19957;-61
2022/08/15 01:38:01;;;;;;;;;;;17.30;99.90;;;;;;4230952;28;20112;-61
2022/08/15 01:40:25;;;;;;;;;;;17.20;99.90;;;;;;4229695;28;20363;-61
2022/08/15 01:42:30;;;;;;;;;;;17.30;99.90;;;;;;4201498;28;19981;-61
2022/08/15 01:44:49;;;;;;;;;;;17.30;99.90;;;;;;4229725;28;19908;-61
2022/08/15 01:46:55;;;;;;;;;;;17.30;99.90;;;;;;4230729;28;19907;-61
2022/08/15 01:49:05;;;;;;;;;;;17.30;99.90;;;;;;4229733;28;19911;-61
2022/08/15 01:51:07;;;;;;;;;;;17.30;99.90;;;;;;4230713;28;19964;-61
2022/08/15 01:53:17;;;;;;;;;;;17.30;99.90;;;;;;4229981;28;20343;-61
2022/08/15 01:55:20;;;;;;;;;;;17.40;99.90;;;;;;4230665;28;19908;-61
2022/08/15 01:57:22;;;;;;;;;;;17.40;99.90;;;;;;4229492;28;19948;-61
2022/08/15 01:59:23;;;;;;;;;;;17.40;99.90;;;;;;4230031;27;19908;-61
2022/08/15 02:01:43;;;;;;;;;;;17.40;99.90;;;;;;4229511;28;20056;-61
2022/08/15 02:03:46;;;;;;;;;;;17.40;99.90;;;;;;4230428;28;19908;-61
2022/08/15 02:05:47;;;;;;;;;;;17.40;99.90;;;;;;4229439;28;19903;-61
2022/08/15 02:07:48;;;;;;;;;;;17.40;99.90;;;;;;4229652;28;19953;-61
2022/08/15 02:09:49;;;;;;;;;;;17.40;99.90;;;;;;4229560;28;19907;-61
2022/08/15 02:11:51;;;;;;;;;;;17.40;99.90;;;;;;4229673;28;19904;-60
2022/08/15 02:13:54;;;;;;;;;;;17.40;99.90;;;;;;4229835;28;19957;-60
2022/08/15 02:15:55;;;;;;;;;;;17.40;99.90;;;;;;4228886;28;20440;-61
2022/08/15 02:17:56;;;;;;;;;;;17.40;99.90;;;;;;4229672;28;19903;-61
2022/08/15 02:19:57;;;;;;;;;;;17.40;99.90;;;;;;4229244;28;19908;-61
2022/08/15 02:21:58;;;;;;;;;;;17.40;99.90;;;;;;4230325;28;19916;-61
2022/08/15 02:23:59;;;;;;;;;;;17.40;99.90;;;;;;4228707;28;19935;-61
2022/08/15 02:26:00;;;;;;;;;;;17.40;99.90;;;;;;4230121;28;19910;-61
2022/08/15 02:28:01;;;;;;;;;;;17.40;99.90;;;;;;4227290;28;19933;-61
2022/08/15 02:30:06;;;;;;;;;;;17.40;99.90;;;;;;4229968;28;19908;-60
2022/08/15 02:32:09;;;;;;;;;;;17.50;99.90;;;;;;4228933;28;19908;-61
2022/08/15 02:34:10;;;;;;;;;;;17.40;99.90;;;;;;4229992;28;19977;-61
2022/08/15 02:36:13;;;;;;;;;;;17.40;99.90;;;;;;4228845;28;19908;-61
2022/08/15 02:38:14;;;;;;;;;;;17.40;99.90;;;;;;4229921;28;19911;-61
2022/08/15 02:40:16;;;;;;;;;;;17.30;99.90;;;;;;4228529;28;19999;-60
2022/08/15 02:42:19;;;;;;;;;;;17.30;99.90;;;;;;4229082;28;20293;-62
2022/08/15 02:44:21;;;;;;;;;;;17.30;99.90;;;;;;4229111;28;19933;-61
2022/08/15 02:46:23;;;;;;;;;;;17.20;99.90;;;;;;4229059;28;19904;-62
2022/08/15 02:48:24;;;;;;;;;;;17.20;99.90;;;;;;4229401;28;20011;-61
2022/08/15 02:50:25;;;;;;;;;;;17.10;99.90;;;;;;4228799;28;19907;-61
2022/08/15 02:52:27;;;;;;;;;;;17.10;99.90;;;;;;4230064;28;19949;-62
2022/08/15 02:54:28;;;;;;;;;;;17.10;99.90;;;;;;4228052;28;20260;-61
2022/08/15 02:56:29;;;;;;;;;;;17.00;99.90;;;;;;4229201;28;19937;-61
2022/08/15 02:58:30;;;;;;;;;;;17.00;99.90;;;;;;4227844;28;19908;-61
2022/08/15 03:00:31;;;;;;;;;;;16.90;99.90;;;;;;4229602;28;20248;-61
2022/08/15 03:02:47;;;;;;;;;;;16.90;99.90;;;;;;4228387;28;19903;-60
2022/08/15 03:04:48;;;;;;;;;;;16.80;99.90;;;;;;4229144;28;19904;-61
2022/08/15 03:06:50;;;;;;;;;;;16.80;99.90;;;;;;4227711;28;19907;-61
2022/08/15 03:08:52;;;;;;;;;;;16.70;99.90;;;;;;4229332;28;19953;-60
2022/08/15 03:10:53;;;;;;;;;;;16.70;99.90;;;;;;4228179;28;19904;-62
2022/08/15 03:13:03;;;;;;;;;;;16.60;99.90;;;;;;4229338;28;19907;-61
2022/08/15 03:15:06;;;;;;;;;;;16.60;99.90;;;;;;4228208;28;19957;-61
2022/08/15 03:17:10;;;;;;;;;;;16.70;99.90;;;;;;4229136;28;19961;-61
2022/08/15 03:19:12;;;;;;;;;;;16.60;99.90;;;;;;4227490;28;19912;-61
2022/08/15 03:21:17;;;;;;;;;;;16.60;99.90;;;;;;4228516;28;19934;-61
2022/08/15 03:23:19;;;;;;;;;;;16.60;99.90;;;;;;4228928;28;19911;-62
2022/08/15 03:25:21;;;;;;;;;;;16.70;99.90;;;;;;4228150;27;19925;-61
2022/08/15 03:27:22;;;;;;;;;;;16.80;99.90;;;;;;4228352;28;20352;-63
2022/08/15 03:29:23;;;;;;;;;;;16.80;99.90;;;;;;4228255;28;19953;-61
2022/08/15 03:31:24;;;;;;;;;;;16.80;99.90;;;;;;4228804;28;19903;-61
2022/08/15 03:33:27;;;;;;;;;;;16.90;99.90;;;;;;4227875;28;19973;-61
2022/08/15 03:35:30;;;;;;;;;;;16.80;99.90;;;;;;4229049;28;19952;-59
2022/08/15 03:37:31;;;;;;;;;;;16.90;99.90;;;;;;4227692;28;19908;-63
2022/08/15 03:39:32;;;;;;;;;;;16.90;99.90;;;;;;4229088;28;20725;-61
2022/08/15 03:41:33;;;;;;;;;;;16.90;99.90;;;;;;4227775;28;19915;-63
2022/08/15 03:43:36;;;;;;;;;;;16.80;99.90;;;;;;4228879;28;20839;-61
2022/08/15 03:45:37;;;;;;;;;;;16.80;99.90;;;;;;4227559;28;19904;-61
2022/08/15 03:47:38;;;;;;;;;;;16.60;99.90;;;;;;4228407;28;20252;-61
2022/08/15 03:49:39;;;;;;;;;;;16.60;99.90;;;;;;4227556;28;19911;-61
2022/08/15 03:51:40;;;;;;;;;;;16.60;99.90;;;;;;4228460;28;19956;-61
2022/08/15 03:53:47;;;;;;;;;;;16.70;99.90;;;;;;4227754;28;20410;-61
2022/08/15 03:55:47;;;;;;;;;;;16.70;99.90;;;;;;4228441;28;20312;-60
2022/08/15 03:57:48;;;;;;;;;;;16.70;99.90;;;;;;4228319;28;19903;-61
2022/08/15 03:59:51;;;;;;;;;;;16.70;99.90;;;;;;4228084;28;20256;-62
2022/08/15 04:01:51;;;;;;;;;;;16.70;99.90;;;;;;4228014;28;20317;-61
2022/08/15 04:03:53;;;;;;;;;;;16.70;99.90;;;;;;4227774;28;19918;-62
2022/08/15 04:05:57;;;;;;;;;;;16.70;99.90;;;;;;4228591;28;19907;-61
2022/08/15 04:07:58;;;;;;;;;;;16.80;99.90;;;;;;4227509;28;19956;-61
2022/08/15 04:09:59;;;;;;;;;;;16.80;99.90;;;;;;4228696;28;19915;-61
2022/08/15 04:12:00;;;;;;;;;;;16.80;99.90;;;;;;4225839;28;19960;-61
2022/08/15 04:14:02;;;;;;;;;;;16.90;99.90;;;;;;4228675;28;20332;-61
2022/08/15 04:16:03;;;;;;;;;;;16.90;99.90;;;;;;4227096;28;19933;-61
2022/08/15 04:18:04;;;;;;;;;;;17.00;99.90;;;;;;4228799;28;19910;-61
2022/08/15 04:20:07;;;;;;;;;;;17.00;99.90;;;;;;4227363;28;19960;-61
2022/08/15 04:22:08;;;;;;;;;;;17.10;99.90;;;;;;4228575;28;19915;-61
2022/08/15 04:24:10;;;;;;;;;;;17.20;99.90;;;;;;4227618;28;19915;-61
2022/08/15 04:26:11;;;;;;;;;;;17.20;99.90;;;;;;4228214;28;19912;-62
2022/08/15 04:28:17;;;;;;;;;;;17.30;99.90;;;;;;4227609;28;20256;-60
2022/08/15 04:30:19;;;;;;;;;;;17.40;99.90;;;;;;4227942;28;20000;-61
2022/08/15 04:32:23;;;;;;;;;;;17.50;99.90;;;;;;4231266;28;19900;-60
2022/08/15 04:34:25;;;;;;;;;;;17.50;99.90;;;;;;4229301;28;19915;-60
2022/08/15 04:36:26;;;;;;;;;;;17.60;99.90;;;;;;4231277;28;19952;-61
2022/08/15 04:38:27;;;;;;;;;;;17.60;99.90;;;;;;4230626;28;20386;-61
2022/08/15 04:40:29;;;;;;;;;;;17.70;99.90;;;;;;4229882;28;19908;-61
2022/08/15 04:42:30;;;;;;;;;;;17.70;99.90;;;;;;4230551;28;19907;-61
2022/08/15 04:44:31;;;;;;;;;;;17.80;99.90;;;;;;4231750;28;19904;-61
2022/08/15 04:46:32;;;;;;;;;;;17.80;99.90;;;;;;4230265;28;19904;-61
2022/08/15 04:48:33;;;;;;;;;;;17.80;99.90;;;;;;4231223;28;19955;-61
2022/08/15 04:50:35;;;;;;;;;;;17.80;99.90;;;;;;4230088;28;19954;-61
2022/08/15 04:52:49;;;;;;;;;;;17.70;99.90;;;;;;4231792;28;19961;-61
2022/08/15 04:54:50;;;;;;;;;;;17.80;99.90;;;;;;4230117;28;20347;-61
2022/08/15 04:56:51;;;;;;;;;;;17.80;99.90;;;;;;4231438;28;19911;-60
2022/08/15 04:58:52;;;;;;;;;;;17.80;99.90;;;;;;4230270;28;19903;-61
2022/08/15 05:00:57;;;;;;;;;;;17.70;99.90;;;;;;4231211;28;19908;-61
2022/08/15 05:03:00;;;;;;;;;;;17.50;99.90;;;;;;4229778;28;20343;-61
2022/08/15 05:05:01;;;;;;;;;;;17.40;99.90;;;;;;4230806;28;19907;-61
2022/08/15 05:07:02;;;;;;;;;;;17.30;99.90;;;;;;4230300;28;20346;-61
2022/08/15 05:09:03;;;;;;;;;;;17.10;99.90;;;;;;4230656;28;19907;-62
2022/08/15 05:11:05;;;;;;;;;;;17.10;99.90;;;;;;4230135;28;20408;-61
2022/08/15 05:13:14;;;;;;;;;;;17.00;99.90;;;;;;4229531;28;19904;-61
2022/08/15 05:15:16;;;;;;;;;;;16.90;99.90;;;;;;4230791;28;19912;-61
2022/08/15 05:17:17;;;;;;;;;;;16.90;99.90;;;;;;4229916;28;19965;-61
2022/08/15 05:19:18;;;;;;;;;;;17.00;99.90;;;;;;4222916;27;19994;-61
2022/08/15 05:21:19;;;;;;;;;;;17.10;99.90;;;;;;4229598;28;20359;-61
2022/08/15 05:23:21;;;;;;;;;;;17.30;99.90;;;;;;4230696;27;20018;-61
2022/08/15 05:25:22;;;;;;;;;;;17.40;99.90;;;;;;4229935;28;19956;-61
2022/08/15 05:27:23;;;;;;;;;;;17.60;99.90;;;;;;4231006;28;19908;-62
2022/08/15 05:29:25;;;;;;;;;;;17.70;99.90;;;;;;4229752;27;19912;-62
2022/08/15 05:31:27;;;;;;;;;;;17.90;99.90;;;;;;4231053;28;20371;-61
2022/08/15 05:33:29;;;;;;;;;;;18.00;99.90;;;;;;4228638;27;19912;-61
2022/08/15 05:35:30;;;;;;;;;;;18.10;99.90;;;;;;4231012;27;19969;-61
2022/08/15 05:37:31;;;;;;;;;;;18.20;99.90;;;;;;4229636;28;19911;-61
2022/08/15 05:39:33;;;;;;;;;;;18.30;99.90;;;;;;4230386;28;19908;-62
2022/08/15 05:41:33;;;;;;;;;;;18.40;99.90;;;;;;4229406;28;20317;-62
2022/08/15 05:43:44;;;;;;;;;;;18.60;99.90;;;;;;4229910;28;19982;-61
2022/08/15 05:45:51;;;;;;;;;;;18.70;99.90;;;;;;4230372;28;19903;-61
2022/08/15 05:48:00;;;;;;;;;;;18.90;99.90;;;;;;4228049;28;19907;-62
2022/08/15 05:50:06;;;;;;;;;;;19.10;99.90;;;;;;4227979;28;20375;-62
2022/08/15 05:52:18;;;;;;;;;;;19.20;99.90;;;;;;4229534;28;19908;-62
2022/08/15 05:54:29;;;;;;;;;;;19.30;99.90;;;;;;4230006;28;20359;-62
2022/08/15 05:56:38;;;;;;;;;;;19.40;99.90;;;;;;4229508;28;19908;-61
2022/08/15 05:58:39;;;;;;;;;;;19.60;99.90;;;;;;4229974;28;19912;-62
2022/08/15 06:00:42;;;;;;;;;;;19.80;99.90;;;;;;4229283;28;19903;-62
2022/08/15 06:02:53;;;;;;;;;;;19.90;99.90;;;;;;4230311;28;19956;-61
2022/08/15 06:05:08;;;;;;;;;;;20.00;99.90;;;;;;4228341;28;20320;-61
2022/08/15 06:07:14;;;;;;;;;;;20.00;99.90;;;;;;4229529;28;19911;-62
2022/08/15 06:09:18;;;;;;;;;;;20.10;99.90;;;;;;4229062;27;20363;-61
2022/08/15 06:11:26;;;;;;;;;;;20.30;99.90;;;;;;4229929;28;19957;-62
2022/08/15 06:13:32;;;;;;;;;;;20.50;99.90;;;;;;4228898;27;20092;-62
2022/08/15 06:15:36;;;;;;;;;;;20.70;99.90;;;;;;4230386;28;19945;-63
2022/08/15 06:17:40;;;;;;;;;;;20.80;99.90;;;;;;4228888;28;19904;-63
2022/08/15 06:19:43;;;;;;;;;;;20.90;99.90;;;;;;4230210;27;19907;-62
2022/08/15 06:21:47;;;;;;;;;;;20.90;99.90;;;;;;4229184;28;19949;-64
2022/08/15 06:24:03;;;;;;;;;;;20.80;99.90;;;;;;4230074;27;20321;-62
2022/08/15 06:26:13;;;;;;;;;;;20.70;99.90;;;;;;4228610;28;19956;-63
2022/08/15 06:28:22;;;;;;;;;;;20.90;99.90;;;;;;4230044;28;19965;-62
2022/08/15 06:30:42;;;;;;;;;;;21.10;99.90;;;;;;4229207;28;19907;-61
2022/08/15 06:32:43;;;;;;;;;;;21.30;99.90;;;;;;4230040;28;20359;-62
2022/08/15 06:34:47;;;;;;;;;;;21.50;99.90;;;;;;4228499;27;19912;-62
2022/08/15 06:37:09;;;;;;;;;;;21.70;99.90;;;;;;4229900;28;20314;-62
2022/08/15 06:39:36;;;;;;;;;;;21.70;99.90;;;;;;4227671;28;19904;-62
2022/08/15 06:41:52;;;;;;;;;;;21.60;99.90;;;;;;4205697;28;19912;-63
2022/08/15 06:43:54;;;;;;;;;;;21.40;99.90;;;;;;4228638;28;19953;-63
2022/08/15 06:45:56;;;;;;;;;;;21.30;99.90;;;;;;4229765;28;19905;-62
2022/08/15 06:48:13;;;;;;;;;;;21.30;99.90;;;;;;4228236;28;19948;-62
2022/08/15 06:50:16;;;;;;;;;;;21.00;99.90;;;;;;4230004;28;19968;-62
2022/08/15 06:52:18;;;;;;;;;;;21.00;99.90;;;;;;4228739;28;19912;-62
2022/08/15 06:54:22;;;;;;;;;;;20.80;99.90;;;;;;4229661;28;19916;-62
2022/08/15 06:56:38;;;;;;;;;;;20.80;99.90;;;;;;4228631;28;19904;-62
2022/08/15 06:58:45;;;;;;;;;;;20.80;99.90;;;;;;4229614;28;19903;-60
2022/08/15 07:00:50;;;;;;;;;;;20.90;99.90;;;;;;4228481;28;19960;-60
2022/08/15 07:03:10;;;;;;;;;;;20.90;99.90;;;;;;4229217;28;19907;-64
2022/08/15 07:05:30;;;;;;;;;;;20.80;99.90;;;;;;4228329;28;20256;-62
2022/08/15 07:07:34;;;;;;;;;;;20.90;99.90;;;;;;4229226;28;20367;-62
2022/08/15 07:09:44;;;;;;;;;;;21.10;99.90;;;;;;4227798;27;19977;-61
2022/08/15 07:11:59;;;;;;;;;;;21.40;99.90;;;;;;4228950;28;20535;-64
2022/08/15 07:14:06;;;;;;;;;;;21.90;99.90;;;;;;4226723;28;20664;-60
2022/08/15 07:16:13;;;;;;;;;;;22.50;99.90;;;;;;4229071;28;19953;-63
2022/08/15 07:18:17;;;;;;;;;;;22.60;99.90;;;;;;4228204;28;20309;-62
2022/08/15 07:20:18;;;;;;;;;;;22.90;99.90;;;;;;4229452;28;20328;-61
2022/08/15 07:22:19;;;;;;;;;;;23.40;99.90;;;;;;4227541;28;20326;-62
2022/08/15 07:24:20;;;;;;;;;;;23.70;99.90;;;;;;4229057;28;19903;-62
2022/08/15 07:26:21;;;;;;;;;;;24.00;99.90;;;;;;4227700;28;19908;-62
2022/08/15 07:28:25;;;;;;;;;;;24.30;99.90;;;;;;4229109;28;19903;-64
2022/08/15 07:30:35;;;;;;;;;;;24.20;99.90;;;;;;4227900;28;20371;-62
2022/08/15 07:32:45;;;;;;;;;;;23.90;99.90;;;;;;4228819;28;19956;-62
2022/08/15 07:34:52;;;;;;;;;;;23.80;99.90;;;;;;4227696;28;19941;-62
2022/08/15 07:37:01;;;;;;;;;;;23.50;99.90;;;;;;4228611;28;19937;-61
2022/08/15 07:39:23;;;;;;;;;;;23.20;99.90;;;;;;4227692;28;19933;-65
2022/08/15 07:41:25;;;;;;;;;;;23.20;99.90;;;;;;4228948;28;19912;-63
2022/08/15 07:43:28;;;;;;;;;;;22.90;99.90;;;;;;4227505;28;19953;-63
2022/08/15 07:45:35;;;;;;;;;;;22.90;99.90;;;;;;4228607;28;19908;-63
2022/08/15 07:47:36;;;;;;;;;;;23.00;99.90;;;;;;4227583;28;19976;-63
2022/08/15 07:49:37;;;;;;;;;;;23.10;99.90;;;;;;4228606;28;19942;-65
2022/08/15 07:51:43;;;;;;;;;;;23.30;99.90;;;;;;4227423;28;20404;-66
2022/08/15 07:54:01;;;;;;;;;;;23.60;99.90;;;;;;4227992;28;19915;-65
2022/08/15 07:56:05;;;;;;;;;;;23.80;99.90;;;;;;4227187;28;19912;-64
2022/08/15 07:58:15;;;;;;;;;;;23.80;99.90;;;;;;4228167;28;19949;-62
2022/08/15 08:00:19;;;;;;;;;;;23.70;99.90;;;;;;4227578;28;19904;-63
2022/08/15 08:02:23;;;;;;;;;;;23.70;99.90;;;;;;4227984;28;20309;-63
2022/08/15 08:04:29;;;;;;;;;;;23.80;99.90;;;;;;4227311;28;19929;-64
2022/08/15 08:06:40;;;;;;;;;;;23.70;99.90;;;;;;4228062;28;19904;-62
2022/08/15 08:08:44;;;;;;;;;;;23.80;99.90;;;;;;4227498;28;20412;-66
2022/08/15 08:11:06;;;;;;;;;;;23.60;99.90;;;;;;4228178;28;19908;-63
2022/08/15 08:13:15;;;;;;;;;;;23.50;99.90;;;;;;4227333;28;19900;-63
2022/08/15 08:15:24;;;;;;;;;;;23.40;99.90;;;;;;4227620;28;19916;-65
2022/08/15 08:17:36;;;;;;;;;;;23.40;99.90;;;;;;4227420;28;19932;-64
2022/08/15 08:19:55;;;;;;;;;;;23.50;99.90;;;;;;4225218;28;20367;-66
2022/08/15 08:22:18;;;;;;;;;;;23.60;99.90;;;;;;4227114;28;19915;-65
2022/08/15 08:24:25;;;;;;;;;;;23.80;99.90;;;;;;4226787;28;19961;-66
2022/08/15 08:26:42;;;;;;;;;;;23.90;99.90;;;;;;4224436;28;20792;-65
2022/08/15 08:28:46;;;;;;;;;;;24.10;99.90;;;;;;4219029;28;20428;-65
2022/08/15 08:30:47;;;;;;;;;;;24.00;99.90;;;;;;4226882;28;19960;-66
2022/08/15 08:32:59;;;;;;;;;;;24.10;99.90;;;;;;4227767;28;19912;-66
2022/08/15 08:35:07;;;;;;;;;;;24.30;99.90;;;;;;4226885;27;20432;-67
2022/08/15 08:37:14;;;;;;;;;;;24.50;99.90;;;;;;4227460;28;19953;-65
2022/08/15 08:39:33;;;;;;;;;;;24.40;99.90;;;;;;4214087;28;19942;-65
2022/08/15 08:41:46;;;;;;;;;;;24.30;99.90;;;;;;4227716;28;19960;-64
2022/08/15 08:43:49;;;;;;;;;;;24.40;99.90;;;;;;4213927;27;20063;-63
2022/08/15 08:46:03;;;;;;;;;;;24.40;99.90;;;;;;4227983;28;19907;-62
2022/08/15 08:48:11;;;;;;;;;;;24.50;99.90;;;;;;4226545;28;19903;-64
2022/08/15 08:50:22;;;;;;;;;;;24.60;99.90;;;;;;4228023;27;19907;-63
2022/08/15 08:52:27;;;;;;;;;;;24.70;99.90;;;;;;4226349;28;20340;-62
2022/08/15 08:54:28;;;;;;;;;;;24.70;99.90;;;;;;4227608;27;20264;-62
2022/08/15 08:56:31;;;;;;;;;;;24.60;99.90;;;;;;4226935;28;19941;-63
2022/08/15 08:58:32;;;;;;;;;;;24.50;99.90;;;;;;4227285;27;19926;-63
2022/08/15 09:00:36;;;;;;;;;;;24.50;99.90;;;;;;4239573;28;20377;-63
2022/08/15 09:02:43;;;;;;;;;;;24.50;99.90;;;;;;4244270;28;20316;-62
2022/08/15 09:04:49;;;;;;;;;;;24.50;99.90;;;;;;4243699;27;19907;-62
2022/08/15 09:06:51;;;;;;;;;;;24.60;99.90;;;;;;4243954;28;20325;-62
2022/08/15 09:09:00;;;;;;;;;;;24.70;99.90;;;;;;4244791;28;21233;-62
2022/08/15 09:11:23;;;;;;;;;;;24.80;99.90;;;;;;4243950;28;19960;-65
2022/08/15 09:13:34;;;;;;;;;;;24.80;99.90;;;;;;4242517;28;19953;-62
2022/08/15 09:15:38;;;;;;;;;;;24.70;99.90;;;;;;4243918;27;19916;-64
2022/08/15 09:17:39;;;;;;;;;;;24.80;99.90;;;;;;4246323;27;20395;-61
2022/08/15 09:19:50;;;;;;;;;;;25.10;99.90;;;;;;4247315;27;19907;-63
2022/08/15 09:21:51;;;;;;;;;;;25.30;99.90;;;;;;4247112;27;20416;-62
2022/08/15 09:23:54;;;;;;;;;;;25.50;99.90;;;;;;4246396;27;20362;-61
2022/08/15 09:25:55;;;;;;;;;;;25.70;99.90;;;;;;4247466;27;20344;-61
2022/08/15 09:28:01;;;;;;;;;;;25.80;99.90;;;;;;4246179;27;19932;-61
2022/08/15 09:30:07;;;;;;;;;;;25.90;99.90;;;;;;4247497;27;19907;-61
2022/08/15 09:32:18;;;;;;;;;;;26.00;99.90;;;;;;4246470;27;19911;-62
2022/08/15 09:34:33;;;;;;;;;;;26.00;99.90;;;;;;4247369;27;19908;-62
2022/08/15 09:36:48;;;;;;;;;;;26.20;99.90;;;;;;4245898;27;20436;-61
2022/08/15 09:39:09;;;;;;;;;;;26.40;99.90;;;;;;4247159;27;20324;-61
2022/08/15 09:41:26;;;;;;;;;;;26.70;99.90;;;;;;4203511;27;20366;-61
2022/08/15 09:43:36;;;;;;;;;;;26.70;99.90;;;;;;4246379;27;20321;-61
2022/08/15 09:45:51;;;;;;;;;;;26.70;99.90;;;;;;4246406;27;20251;-61
2022/08/15 09:48:08;;;;;;;;;;;26.70;99.90;;;;;;4246582;27;19956;-61
2022/08/15 09:50:18;;;;;;;;;;;26.70;99.90;;;;;;4246433;27;19971;-61
2022/08/15 09:52:19;;;;;;;;;;;26.70;99.90;;;;;;4246629;27;19953;-62
2022/08/15 09:54:24;;;;;;;;;;;26.60;99.90;;;;;;4246096;27;19909;-61
2022/08/15 09:56:26;;;;;;;;;;;26.70;99.90;;;;;;4247106;27;19912;-62
2022/08/15 09:58:29;;;;;;;;;;;26.60;99.90;;;;;;4245748;27;19960;-62
2022/08/15 10:00:41;;;;;;;;;;;26.40;99.90;;;;;;4246748;27;19960;-60
2022/08/15 10:02:43;;;;;;;;;;;26.30;99.90;;;;;;4245967;27;19983;-61
2022/08/15 10:04:47;;;;;;;;;;;26.30;99.90;;;;;;4247281;27;19960;-61
2022/08/15 10:07:10;;;;;;;;;;;26.30;99.90;;;;;;4245689;27;19948;-61
2022/08/15 10:09:28;;;;;;;;;;;26.40;99.90;;;;;;4246679;27;19911;-61
2022/08/15 10:11:31;;;;;;;;;;;26.40;99.90;;;;;;4245431;27;19953;-61
2022/08/15 10:13:38;;;;;;;;;;;26.50;99.90;;;;;;4246348;27;19960;-60
2022/08/15 10:15:43;;;;;;;;;;;26.70;99.90;;;;;;4245322;27;19915;-63
2022/08/15 10:17:44;;;;;;;;;;;27.00;99.90;;;;;;4246350;27;19964;-61
2022/08/15 10:19:45;;;;;;;;;;;27.10;99.90;;;;;;4245910;27;20255;-61
2022/08/15 10:21:46;;;;;;;;;;;27.10;99.90;;;;;;4247001;27;19926;-61
2022/08/15 10:23:49;;;;;;;;;;;27.20;99.90;;;;;;4245630;27;19903;-61
2022/08/15 10:26:08;;;;;;;;;;;27.30;99.90;;;;;;4246067;27;19927;-61
2022/08/15 10:28:12;;;;;;;;;;;27.40;99.90;;;;;;4245200;27;19960;-61
2022/08/15 10:30:15;;;;;;;;;;;27.60;99.90;;;;;;4246595;27;19952;-61
2022/08/15 10:32:19;;;;;;;;;;;27.60;99.90;;;;;;4245640;27;20316;-61
2022/08/15 10:34:29;;;;;;;;;;;27.50;99.90;;;;;;4246514;27;19948;-62
2022/08/15 10:36:35;;;;;;;;;;;27.60;99.90;;;;;;4245332;27;19915;-61
2022/08/15 10:38:38;;;;;;;;;;;27.80;99.90;;;;;;4246870;27;19907;-61
2022/08/15 10:40:45;;;;;;;;;;;28.00;99.90;;;;;;4245340;27;19907;-61
2022/08/15 10:42:54;;;;;;;;;;;28.00;98.40;;;;;;4246505;27;19907;-61
2022/08/15 10:44:57;;;;;;;;;;;28.00;98.80;;;;;;4245551;27;19903;-62
2022/08/15 10:46:58;;;;;;;;;;;27.70;98.10;;;;;;4246318;27;19907;-61
2022/08/15 10:49:17;;;;;;;;;;;27.60;98.60;;;;;;4245387;27;20382;-61
2022/08/15 10:51:37;;;;;;;;;;;27.50;98.10;;;;;;4246420;27;20327;-61
2022/08/15 10:53:57;;;;;;;;;;;27.20;98.50;;;;;;4245129;27;19933;-61
2022/08/15 10:56:16;;;;;;;;;;;27.00;98.20;;;;;;4246250;27;20355;-61
2022/08/15 10:58:23;;;;;;;;;;;26.90;97.30;;;;;;4245251;27;19903;-62
2022/08/15 11:01:02;;;;;;;;;;;26.80;98.40;;;;;;4246313;27;19907;-62
2022/08/15 11:03:06;;;;;;;;;;;26.80;98.50;;;;;;4191908;27;19907;-64
2022/08/15 11:05:09;;;;;;;;;;;26.80;98.30;;;;;;4245998;27;19979;-62
2022/08/15 11:07:21;;;;;;;;;;;26.80;98.10;;;;;;4244515;27;20559;-61
2022/08/15 11:09:23;;;;;;;;;;;26.90;98.10;;;;;;4245774;27;19955;-61
2022/08/15 11:11:25;;;;;;;;;;;27.10;98.30;;;;;;4245103;27;20347;-61
2022/08/15 11:13:29;;;;;;;;;;;27.30;98.40;;;;;;4246117;27;19984;-61
2022/08/15 11:15:45;;;;;;;;;;;27.60;98.20;;;;;;4244745;27;19915;-61
2022/08/15 11:17:48;;;;;;;;;;;27.80;97.80;;;;;;4245815;27;19903;-61
2022/08/15 11:19:50;;;;;;;;;;;27.90;97.50;;;;;;4244893;27;20359;-61
2022/08/15 11:21:53;;;;;;;;;;;27.80;96.40;;;;;;4246050;27;19956;-62
2022/08/15 11:23:57;;;;;;;;;;;27.80;96.70;;;;;;4244901;27;20329;-61
2022/08/15 11:25:58;;;;;;;;;;;28.00;96.60;;;;;;4245925;27;20339;-61
2022/08/15 11:28:02;;;;;;;;;;;28.00;96.80;;;;;;4244397;27;19900;-62
2022/08/15 11:30:06;;;;;;;;;;;28.20;96.90;;;;;;4245364;27;19956;-61
2022/08/15 11:32:07;;;;;;;;;;;28.50;95.50;;;;;;4244614;27;19947;-64
2022/08/15 11:34:17;;;;;;;;;;;28.50;95.20;;;;;;4245256;27;20419;-62
2022/08/15 11:36:20;;;;;;;;;;;28.60;95.20;;;;;;4244724;27;19960;-61
2022/08/15 11:38:21;;;;;;;;;;;28.50;95.60;;;;;;4245141;27;19960;-62
2022/08/15 11:40:26;;;;;;;;;;;28.10;95.90;;;;;;4244574;27;19899;-62
2022/08/15 11:42:32;;;;;;;;;;;28.00;96.10;;;;;;4244209;27;19961;-62
2022/08/15 11:44:39;;;;;;;;;;;28.00;96.30;;;;;;4245518;27;19960;-61
2022/08/15 11:46:40;;;;;;;;;;;28.00;96.10;;;;;;4244442;27;20450;-61
2022/08/15 11:48:46;;;;;;;;;;;27.90;96.20;;;;;;4244129;27;19904;-60
2022/08/15 11:50:55;;;;;;;;;;;28.10;96.30;;;;;;4243126;27;19907;-62
2022/08/15 11:52:58;;;;;;;;;;;28.10;95.80;;;;;;4244710;27;19911;-61
2022/08/15 11:55:28;;;;;;;;;;;28.30;96.00;;;;;;4244035;27;20019;-60
2022/08/15 11:57:38;;;;;;;;;;;28.50;95.50;;;;;;4226951;27;19911;-61
2022/08/15 11:59:55;;;;;;;;;;;28.70;95.20;;;;;;4244063;27;19971;-62
2022/08/15 12:01:59;;;;;;;;;;;28.90;94.50;;;;;;4245049;28;19952;-60
2022/08/15 12:04:02;;;;;;;;;;;29.10;94.60;;;;;;4244344;27;19907;-61
2022/08/15 12:06:12;;;;;;;;;;;29.30;94.10;;;;;;4245203;28;20412;-63
2022/08/15 12:08:19;;;;;;;;;;;29.40;94.30;;;;;;4244346;28;19949;-60
2022/08/15 12:10:25;;;;;;;;;;;29.30;93.40;;;;;;4244993;27;19964;-60